createdAt,value
2022-07-29T00:00:47.365Z,22.01
2022-07-29T00:02:50.929Z,22.03
2022-07-29T00:04:55.884Z,21.94
2022-07-29T00:06:59.419Z,21.95
2022-07-29T00:09:02.927Z,21.95
2022-07-29T00:11:06.476Z,21.95
2022-07-29T00:13:10.021Z,21.95
2022-07-29T00:15:13.685Z,21.94
2022-07-29T00:17:19.167Z,21.92
2022-07-29T00:19:22.695Z,21.88
2022-07-29T00:21:28.190Z,21.87
2022-07-29T00:23:33.794Z,21.87
2022-07-29T00:25:40.404Z,21.77
2022-07-29T00:27:44.115Z,21.79
2022-07-29T00:29:47.696Z,21.80
2022-07-29T00:31:51.351Z,21.84
2022-07-29T00:33:55.067Z,21.84
2022-07-29T00:35:57.587Z,21.82
2022-07-29T00:38:02.559Z,21.82
2022-07-29T00:40:07.055Z,21.80
2022-07-29T00:42:10.806Z,21.78
2022-07-29T00:44:14.768Z,21.77
2022-07-29T00:46:18.634Z,21.76
2022-07-29T00:48:22.242Z,21.79
2022-07-29T00:50:29.016Z,21.70
2022-07-29T00:52:32.816Z,21.77
2022-07-29T00:54:39.161Z,21.78
2022-07-29T00:56:47.528Z,21.80
2022-07-29T00:58:53.566Z,21.79
2022-07-29T01:00:57.171Z,21.58
2022-07-29T01:03:01.508Z,21.38
2022-07-29T01:05:07.263Z,20.87
2022-07-29T01:07:12.120Z,21.37
2022-07-29T01:09:16.169Z,21.43
2022-07-29T01:11:41.707Z,21.42
2022-07-29T01:13:45.771Z,21.47
2022-07-29T01:15:55.988Z,21.18
2022-07-29T01:18:05.910Z,21.48
2022-07-29T01:20:14.929Z,21.46
2022-07-29T01:22:29.783Z,21.51
2022-07-29T01:24:55.053Z,21.37
2022-07-29T01:27:05.976Z,20.83
2022-07-29T01:29:25.627Z,20.98
2022-07-29T01:31:49.144Z,20.99
2022-07-29T01:34:05.921Z,21.07
2022-07-29T01:36:14.052Z,21.02
2022-07-29T01:38:23.133Z,21.00
2022-07-29T01:40:30.717Z,21.15
2022-07-29T01:42:37.928Z,21.13
2022-07-29T01:44:50.488Z,21.14
2022-07-29T01:46:58.158Z,21.14
2022-07-29T01:49:10.733Z,21.08
2022-07-29T01:51:18.936Z,20.89
2022-07-29T01:53:37.666Z,20.75
2022-07-29T01:55:45.344Z,20.44
2022-07-29T01:57:50.759Z,20.76
2022-07-29T01:59:58.051Z,20.79
2022-07-29T02:02:03.512Z,20.80
2022-07-29T02:04:10.783Z,20.81
2022-07-29T02:06:17.652Z,20.74
2022-07-29T02:08:22.079Z,20.74
2022-07-29T02:10:29.737Z,20.76
2022-07-29T02:12:36.535Z,20.81
2022-07-29T02:14:45.460Z,20.86
2022-07-29T02:16:53.936Z,20.92
2022-07-29T02:19:00.022Z,20.97
2022-07-29T02:21:05.168Z,20.97
2022-07-29T02:23:11.425Z,20.94
2022-07-29T02:25:17.526Z,21.03
2022-07-29T02:27:22.607Z,20.94
2022-07-29T02:29:29.121Z,20.93
2022-07-29T02:31:35.703Z,20.63
2022-07-29T02:33:42.617Z,20.93
2022-07-29T02:35:48.223Z,20.93
2022-07-29T02:38:07.159Z,20.92
2022-07-29T02:40:13.417Z,20.81
2022-07-29T02:42:19.453Z,20.83
2022-07-29T02:44:28.106Z,20.84
2022-07-29T02:46:37.802Z,20.51
2022-07-29T02:48:50.858Z,20.76
2022-07-29T02:51:03.782Z,20.74
2022-07-29T02:53:11.147Z,20.74
2022-07-29T02:55:21.330Z,20.73
2022-07-29T02:57:32.363Z,20.67
2022-07-29T02:59:39.366Z,20.65
2022-07-29T03:01:45.913Z,20.63
2022-07-29T03:03:53.021Z,20.57
2022-07-29T03:05:58.808Z,20.55
2022-07-29T03:08:05.378Z,20.56
2022-07-29T03:10:11.097Z,20.54
2022-07-29T03:12:18.469Z,20.54
2022-07-29T03:14:23.967Z,20.56
2022-07-29T03:16:28.025Z,20.42
2022-07-29T03:18:32.986Z,20.44
2022-07-29T03:20:39.628Z,20.45
2022-07-29T03:22:44.818Z,20.40
2022-07-29T03:24:48.444Z,20.32
2022-07-29T03:26:52.187Z,20.28
2022-07-29T03:28:56.943Z,20.27
2022-07-29T03:31:00.478Z,20.24
2022-07-29T03:33:05.230Z,20.17
2022-07-29T03:35:17.534Z,20.14
2022-07-29T03:37:22.411Z,20.18
2022-07-29T03:39:29.678Z,20.20
2022-07-29T03:41:34.750Z,20.17
2022-07-29T03:43:49.716Z,19.80
2022-07-29T03:45:56.442Z,20.09
2022-07-29T03:48:04.218Z,19.97
2022-07-29T03:50:10.907Z,19.90
2022-07-29T03:52:14.677Z,19.88
2022-07-29T03:54:21.159Z,19.91
2022-07-29T03:56:26.622Z,19.94
2022-07-29T03:58:32.558Z,19.99
2022-07-29T04:00:37.127Z,19.85
2022-07-29T04:02:41.978Z,19.92
2022-07-29T04:04:45.654Z,19.89
2022-07-29T04:06:49.392Z,19.84
2022-07-29T04:08:52.911Z,19.81
2022-07-29T04:10:57.869Z,19.80
2022-07-29T04:13:01.864Z,19.80
2022-07-29T04:15:08.907Z,19.78
2022-07-29T04:17:13.320Z,19.72
2022-07-29T04:19:16.899Z,19.69
2022-07-29T04:21:20.415Z,19.67
2022-07-29T04:23:23.852Z,19.64
2022-07-29T04:25:27.357Z,19.53
2022-07-29T04:27:32.333Z,19.42
2022-07-29T04:29:35.808Z,19.41
2022-07-29T04:31:39.469Z,19.44
2022-07-29T04:33:43.051Z,19.43
2022-07-29T04:35:49.914Z,19.43
2022-07-29T04:37:56.225Z,19.43
2022-07-29T04:39:59.726Z,19.44
2022-07-29T04:42:03.295Z,19.48
2022-07-29T04:44:08.800Z,19.47
2022-07-29T04:46:12.452Z,19.57
2022-07-29T04:48:16.119Z,19.62
2022-07-29T04:50:19.668Z,19.66
2022-07-29T04:52:23.207Z,19.70
2022-07-29T04:54:27.254Z,19.71
2022-07-29T04:56:31.054Z,19.71
2022-07-29T04:58:36.760Z,19.77
2022-07-29T05:00:42.100Z,19.80
2022-07-29T05:02:45.716Z,19.73
2022-07-29T05:04:49.536Z,19.78
2022-07-29T05:06:52.989Z,19.78
2022-07-29T05:08:56.483Z,19.78
2022-07-29T05:11:11.785Z,19.81
2022-07-29T05:13:16.094Z,19.79
2022-07-29T05:15:19.815Z,19.85
2022-07-29T05:17:24.713Z,19.90
2022-07-29T05:19:28.252Z,19.90
2022-07-29T05:21:31.720Z,19.90
2022-07-29T05:23:35.207Z,19.89
2022-07-29T05:25:43.652Z,19.92
2022-07-29T05:27:48.297Z,19.91
2022-07-29T05:29:54.706Z,19.44
2022-07-29T05:31:58.174Z,19.94
2022-07-29T05:34:03.552Z,19.94
2022-07-29T05:36:08.026Z,19.90
2022-07-29T05:38:11.899Z,19.92
2022-07-29T05:40:15.610Z,19.93
2022-07-29T05:42:19.239Z,19.96
2022-07-29T05:44:25.420Z,19.99
2022-07-29T05:46:29.150Z,20.10
2022-07-29T05:48:33.269Z,20.07
2022-07-29T05:50:38.147Z,20.12
2022-07-29T05:52:51.573Z,20.07
2022-07-29T05:54:55.513Z,20.03
2022-07-29T05:56:59.108Z,20.06
2022-07-29T05:59:02.666Z,20.15
2022-07-29T06:01:06.443Z,20.26
2022-07-29T06:03:10.031Z,20.22
2022-07-29T06:05:17.119Z,20.21
2022-07-29T06:07:22.260Z,20.27
2022-07-29T06:09:26.921Z,20.29
2022-07-29T06:11:30.487Z,20.21
2022-07-29T06:13:34.157Z,20.21
2022-07-29T06:15:37.690Z,20.36
2022-07-29T06:18:00.222Z,20.66
2022-07-29T06:20:07.450Z,20.70
2022-07-29T06:22:11.181Z,20.53
2022-07-29T06:24:17.539Z,20.48
2022-07-29T06:26:30.773Z,20.62
2022-07-29T06:28:35.550Z,20.90
2022-07-29T06:30:39.308Z,20.76
2022-07-29T06:32:43.889Z,20.56
2022-07-29T06:34:48.939Z,21.02
2022-07-29T06:36:53.778Z,21.01
2022-07-29T06:38:57.748Z,21.00
2022-07-29T06:41:02.880Z,20.97
2022-07-29T06:43:07.126Z,20.90
2022-07-29T06:45:11.641Z,20.79
2022-07-29T06:47:15.185Z,20.64
2022-07-29T06:49:18.824Z,20.69
2022-07-29T06:51:23.819Z,20.82
2022-07-29T06:53:29.005Z,20.79
2022-07-29T06:55:32.825Z,20.66
2022-07-29T06:57:37.949Z,21.18
2022-07-29T06:59:41.497Z,21.33
2022-07-29T07:01:45.501Z,21.42
2022-07-29T07:03:49.082Z,21.48
2022-07-29T07:05:54.387Z,21.50
2022-07-29T07:07:57.895Z,21.34
2022-07-29T07:10:01.361Z,21.09
2022-07-29T07:12:05.374Z,20.97
2022-07-29T07:14:10.329Z,21.03
2022-07-29T07:16:13.916Z,20.89
2022-07-29T07:18:17.898Z,20.87
2022-07-29T07:20:22.052Z,20.37
2022-07-29T07:22:28.940Z,21.01
2022-07-29T07:24:32.453Z,21.06
2022-07-29T07:26:35.963Z,20.95
2022-07-29T07:28:39.506Z,21.02
2022-07-29T07:30:44.541Z,20.73
2022-07-29T07:32:48.100Z,20.52
2022-07-29T07:34:51.622Z,20.65
2022-07-29T07:36:55.167Z,20.70
2022-07-29T07:38:58.744Z,20.79
2022-07-29T07:41:02.735Z,20.75
2022-07-29T07:43:06.374Z,20.63
2022-07-29T07:45:15.857Z,20.70
2022-07-29T07:47:24.476Z,20.83
2022-07-29T07:49:31.657Z,21.03
2022-07-29T07:51:35.196Z,21.27
2022-07-29T07:53:38.836Z,21.34
2022-07-29T07:56:09.364Z,21.04
2022-07-29T07:58:08.328Z,20.58
2022-07-29T08:00:12.794Z,20.18
2022-07-29T08:02:16.786Z,19.92
2022-07-29T08:04:27.103Z,20.11
2022-07-29T08:06:31.522Z,20.16
2022-07-29T08:08:35.056Z,20.18
2022-07-29T08:10:57.816Z,20.26
2022-07-29T08:13:04.267Z,20.33
2022-07-29T08:15:09.460Z,20.35
2022-07-29T08:17:13.018Z,20.33
2022-07-29T08:19:16.575Z,20.38
2022-07-29T08:21:21.454Z,20.55
2022-07-29T08:23:25.408Z,20.71
2022-07-29T08:25:29.265Z,20.78
2022-07-29T08:27:43.505Z,20.97
2022-07-29T08:29:47.691Z,21.04
2022-07-29T08:31:51.533Z,21.18
2022-07-29T08:33:57.120Z,21.24
2022-07-29T08:36:01.007Z,21.37
2022-07-29T08:38:05.905Z,21.48
2022-07-29T08:40:10.145Z,21.39
2022-07-29T08:42:14.326Z,21.31
2022-07-29T08:44:18.155Z,21.17
2022-07-29T08:46:34.043Z,20.97
2022-07-29T08:48:38.667Z,20.95
2022-07-29T08:50:43.193Z,20.97
2022-07-29T08:52:55.407Z,20.95
2022-07-29T08:55:03.360Z,20.86
2022-07-29T08:57:07.329Z,20.95
2022-07-29T08:59:14.417Z,20.99
2022-07-29T09:01:23.351Z,20.87
2022-07-29T09:03:42.258Z,20.88
2022-07-29T09:05:48.303Z,20.93
2022-07-29T09:07:52.335Z,20.95
2022-07-29T09:09:56.099Z,20.87
2022-07-29T09:12:01.259Z,20.85
2022-07-29T09:14:04.942Z,20.75
2022-07-29T09:16:09.695Z,20.48
2022-07-29T09:18:20.670Z,20.81
2022-07-29T09:20:48.489Z,20.80
2022-07-29T09:22:54.090Z,20.76
2022-07-29T09:24:57.693Z,20.70
2022-07-29T09:27:02.987Z,20.58
2022-07-29T09:29:12.966Z,20.72
2022-07-29T09:31:16.612Z,20.83
2022-07-29T09:33:20.973Z,20.90
2022-07-29T09:35:26.861Z,20.78
2022-07-29T09:37:30.799Z,20.60
2022-07-29T09:39:35.717Z,20.60
2022-07-29T09:41:50.302Z,20.25
2022-07-29T09:43:59.465Z,20.54
2022-07-29T09:46:12.505Z,20.48
2022-07-29T09:48:18.278Z,20.61
2022-07-29T09:50:24.933Z,20.64
2022-07-29T09:52:29.687Z,20.36
2022-07-29T09:54:37.652Z,20.80
2022-07-29T09:56:44.412Z,20.82
2022-07-29T09:58:47.937Z,20.79
2022-07-29T10:00:54.674Z,20.75
2022-07-29T10:03:03.764Z,20.79
2022-07-29T10:05:17.810Z,20.82
2022-07-29T10:07:21.394Z,20.72
2022-07-29T10:09:25.493Z,20.70
2022-07-29T10:11:48.428Z,20.70
2022-07-29T10:13:52.632Z,20.58
2022-07-29T10:15:57.620Z,20.67
2022-07-29T10:18:02.117Z,20.67
2022-07-29T10:20:06.917Z,20.83
2022-07-29T10:22:31.090Z,20.92
2022-07-29T10:24:40.796Z,20.52
2022-07-29T10:26:45.660Z,20.95
2022-07-29T10:28:49.216Z,20.95
2022-07-29T10:30:54.920Z,20.93
2022-07-29T10:33:30.837Z,20.75
2022-07-29T10:35:47.033Z,20.75
2022-07-29T10:38:31.144Z,21.06
2022-07-29T10:41:00.382Z,21.07
2022-07-29T10:43:18.513Z,21.09
2022-07-29T10:45:24.915Z,21.07
2022-07-29T10:47:29.238Z,21.12
2022-07-29T10:49:34.359Z,21.30
2022-07-29T10:52:07.244Z,21.44
2022-07-29T10:54:10.994Z,21.49
2022-07-29T10:56:26.964Z,21.69
2022-07-29T10:58:30.548Z,21.75
2022-07-29T11:00:34.878Z,21.84
2022-07-29T11:02:53.028Z,21.93
2022-07-29T11:05:06.987Z,22.03
2022-07-29T11:07:13.183Z,22.23
2022-07-29T11:09:34.970Z,22.39
2022-07-29T11:11:44.106Z,22.76
2022-07-29T11:13:56.080Z,22.89
2022-07-29T11:16:00.712Z,22.95
2022-07-29T11:18:15.120Z,23.13
2022-07-29T11:20:34.917Z,23.14
2022-07-29T11:22:45.860Z,23.48
2022-07-29T11:25:15.020Z,23.65
2022-07-29T11:27:23.098Z,23.56
2022-07-29T11:29:27.457Z,23.51
2022-07-29T11:31:37.706Z,23.62
2022-07-29T11:33:56.049Z,23.76
2022-07-29T11:36:16.902Z,23.89
2022-07-29T11:38:28.770Z,23.93
2022-07-29T11:40:32.686Z,24.00
2022-07-29T11:42:47.025Z,23.91
2022-07-29T11:44:57.857Z,24.24
2022-07-29T11:47:02.334Z,24.23
2022-07-29T11:51:32.964Z,24.49
2022-07-29T11:53:37.771Z,24.57
2022-07-29T11:55:50.888Z,24.66
2022-07-29T11:58:03.760Z,24.79
2022-07-29T12:00:12.349Z,24.85
2022-07-29T12:02:37.277Z,24.82
2022-07-29T12:04:51.198Z,24.77
2022-07-29T12:07:00.571Z,24.83
2022-07-29T12:09:11.286Z,24.99
2022-07-29T12:11:21.317Z,25.00
2022-07-29T12:13:37.030Z,24.82
2022-07-29T12:15:47.194Z,24.63
2022-07-29T12:17:50.997Z,24.87
2022-07-29T12:19:55.364Z,24.98
2022-07-29T12:22:01.118Z,25.14
2022-07-29T12:24:09.516Z,25.17
2022-07-29T12:26:25.559Z,25.04
2022-07-29T12:28:29.517Z,24.74
2022-07-29T12:30:41.604Z,24.67
2022-07-29T12:32:49.703Z,25.02
2022-07-29T12:34:53.572Z,25.15
2022-07-29T12:36:57.622Z,25.40
2022-07-29T12:39:02.759Z,25.45
2022-07-29T12:41:06.476Z,25.47
2022-07-29T12:43:11.396Z,25.67
2022-07-29T12:45:14.849Z,25.86
2022-07-29T12:47:20.801Z,25.95
2022-07-29T12:49:24.790Z,26.10
2022-07-29T12:51:32.942Z,26.17
2022-07-29T12:53:37.431Z,25.99
2022-07-29T12:55:44.275Z,26.33
2022-07-29T12:57:48.948Z,26.45
2022-07-29T13:00:17.573Z,26.65
2022-07-29T13:02:24.699Z,26.83
2022-07-29T13:04:29.428Z,26.99
2022-07-29T13:06:39.050Z,26.94
2022-07-29T13:09:01.238Z,26.79
2022-07-29T13:11:06.693Z,26.88
2022-07-29T13:13:11.966Z,27.04
2022-07-29T13:15:17.137Z,27.18
2022-07-29T13:17:23.853Z,26.90
2022-07-29T13:19:36.575Z,27.26
2022-07-29T13:21:41.051Z,27.32
2022-07-29T13:23:44.544Z,27.41
2022-07-29T13:25:48.138Z,27.39
2022-07-29T13:27:55.287Z,27.31
2022-07-29T13:30:00.853Z,26.92
2022-07-29T13:32:04.899Z,26.74
2022-07-29T13:34:08.537Z,26.82
2022-07-29T13:36:12.116Z,26.82
2022-07-29T13:38:15.822Z,27.04
2022-07-29T13:40:19.330Z,27.08
2022-07-29T13:42:22.859Z,27.20
2022-07-29T13:44:27.907Z,27.44
2022-07-29T13:46:31.459Z,27.35
2022-07-29T13:48:35.163Z,27.58
2022-07-29T13:50:38.680Z,27.45
2022-07-29T13:52:42.262Z,27.73
2022-07-29T13:54:46.057Z,27.97
2022-07-29T13:56:49.797Z,27.75
2022-07-29T13:58:53.251Z,27.99
2022-07-29T14:00:58.240Z,27.96
2022-07-29T14:03:01.832Z,28.10
2022-07-29T14:05:08.545Z,27.99
2022-07-29T14:07:16.405Z,27.77
2022-07-29T14:09:20.294Z,27.98
2022-07-29T14:11:23.774Z,28.05
2022-07-29T14:13:27.398Z,28.09
2022-07-29T14:15:30.827Z,28.14
2022-07-29T14:17:35.841Z,28.07
2022-07-29T14:19:39.903Z,28.23
2022-07-29T14:21:43.435Z,28.29
2022-07-29T14:23:49.177Z,28.44
2022-07-29T14:25:54.367Z,28.56
2022-07-29T14:27:58.527Z,28.80
2022-07-29T14:30:02.160Z,28.72
2022-07-29T14:32:06.599Z,28.81
2022-07-29T14:34:12.147Z,28.99
2022-07-29T14:36:15.772Z,29.26
2022-07-29T14:38:19.935Z,29.23
2022-07-29T14:40:23.584Z,29.25
2022-07-29T14:42:27.104Z,28.98
2022-07-29T14:44:32.270Z,29.07
2022-07-29T14:46:35.981Z,29.11
2022-07-29T14:48:39.638Z,29.16
2022-07-29T14:50:46.061Z,29.15
2022-07-29T14:52:49.566Z,29.27
2022-07-29T14:54:53.237Z,29.07
2022-07-29T14:56:58.339Z,29.28
2022-07-29T14:59:02.270Z,29.07
2022-07-29T15:01:06.919Z,28.89
2022-07-29T15:03:11.554Z,29.14
2022-07-29T15:05:15.309Z,29.34
2022-07-29T15:07:20.154Z,29.16
2022-07-29T15:09:23.717Z,29.35
2022-07-29T15:11:27.343Z,29.06
2022-07-29T15:13:30.840Z,29.19
2022-07-29T15:15:34.458Z,29.46
2022-07-29T15:17:38.167Z,29.55
2022-07-29T15:19:44.979Z,29.56
2022-07-29T15:21:49.220Z,29.62
2022-07-29T15:23:54.238Z,29.78
2022-07-29T15:25:57.819Z,29.59
2022-07-29T15:28:03.837Z,29.73
2022-07-29T15:30:08.407Z,29.60
2022-07-29T15:32:12.244Z,29.49
2022-07-29T15:34:15.945Z,29.51
2022-07-29T15:36:50.122Z,29.42
2022-07-29T15:38:43.008Z,28.93
2022-07-29T15:40:47.909Z,28.67
2022-07-29T15:42:51.493Z,28.43
2022-07-29T15:44:56.233Z,28.28
2022-07-29T15:47:05.771Z,28.66
2022-07-29T15:49:09.562Z,29.07
2022-07-29T15:51:13.194Z,29.30
2022-07-29T15:53:16.776Z,29.47
2022-07-29T15:55:21.180Z,29.56
2022-07-29T15:57:26.595Z,29.21
2022-07-29T15:59:30.654Z,29.40
2022-07-29T16:01:34.281Z,29.50
2022-07-29T16:03:37.892Z,29.46
2022-07-29T16:05:42.068Z,29.35
2022-07-29T16:07:45.583Z,29.48
2022-07-29T16:09:53.049Z,29.55
2022-07-29T16:11:57.071Z,29.44
2022-07-29T16:14:02.310Z,29.17
2022-07-29T16:16:06.387Z,29.14
2022-07-29T16:18:10.207Z,29.21
2022-07-29T16:20:14.081Z,29.30
2022-07-29T16:22:17.693Z,29.15
2022-07-29T16:24:21.171Z,29.29
2022-07-29T16:26:24.714Z,29.14
2022-07-29T16:28:28.336Z,29.02
2022-07-29T16:30:33.331Z,29.17
2022-07-29T16:32:36.853Z,29.42
2022-07-29T16:34:41.519Z,29.55
2022-07-29T16:36:47.874Z,29.57
2022-07-29T16:38:51.839Z,29.21
2022-07-29T16:40:55.315Z,28.89
2022-07-29T16:42:58.914Z,28.71
2022-07-29T16:45:02.852Z,28.90
2022-07-29T16:47:08.483Z,29.00
2022-07-29T16:49:15.045Z,28.99
2022-07-29T16:51:23.211Z,28.99
2022-07-29T16:53:30.008Z,29.13
2022-07-29T16:55:33.759Z,29.19
2022-07-29T16:57:37.437Z,28.73
2022-07-29T16:59:43.366Z,29.30
2022-07-29T17:01:47.494Z,29.30
2022-07-29T17:04:06.261Z,29.14
2022-07-29T17:06:09.864Z,29.18
2022-07-29T17:08:13.636Z,29.14
2022-07-29T17:10:17.388Z,28.93
2022-07-29T17:12:20.838Z,28.93
2022-07-29T17:14:25.878Z,29.01
2022-07-29T17:16:30.202Z,28.97
2022-07-29T17:18:33.673Z,28.78
2022-07-29T17:20:38.575Z,28.66
2022-07-29T17:22:42.963Z,28.73
2022-07-29T17:24:46.572Z,28.60
2022-07-29T17:26:50.787Z,28.49
2022-07-29T17:28:54.281Z,28.46
2022-07-29T17:30:58.056Z,28.44
2022-07-29T17:33:02.015Z,28.40
2022-07-29T17:35:27.689Z,28.28
2022-07-29T17:37:31.651Z,28.31
2022-07-29T17:39:36.092Z,28.20
2022-07-29T17:41:40.880Z,28.09
2022-07-29T17:43:44.404Z,28.18
2022-07-29T17:45:49.406Z,28.19
2022-07-29T17:47:54.111Z,28.26
2022-07-29T17:49:57.639Z,28.12
2022-07-29T17:52:01.353Z,28.10
2022-07-29T17:54:06.470Z,28.05
2022-07-29T17:56:10.117Z,27.92
2022-07-29T17:58:14.135Z,27.88
2022-07-29T18:00:17.976Z,27.69
2022-07-29T18:02:21.633Z,27.43
2022-07-29T18:04:25.439Z,27.28
2022-07-29T18:06:28.976Z,27.24
2022-07-29T18:08:32.487Z,27.14
2022-07-29T18:10:37.904Z,26.89
2022-07-29T18:12:41.572Z,26.77
2022-07-29T18:14:45.027Z,26.66
2022-07-29T18:16:48.688Z,26.51
2022-07-29T18:18:52.270Z,26.41
2022-07-29T18:20:55.881Z,26.37
2022-07-29T18:22:59.481Z,26.22
2022-07-29T18:25:03.402Z,26.17
2022-07-29T18:27:08.403Z,26.11
2022-07-29T18:29:12.344Z,26.05
2022-07-29T18:31:15.983Z,26.01
2022-07-29T18:33:22.365Z,26.06
2022-07-29T18:35:26.373Z,26.01
2022-07-29T18:38:02.311Z,25.95
2022-07-29T18:39:55.137Z,25.85
2022-07-29T18:42:01.594Z,25.91
2022-07-29T18:44:06.795Z,25.88
2022-07-29T18:46:10.819Z,25.82
2022-07-29T18:48:16.899Z,25.83
2022-07-29T18:50:20.611Z,25.75
2022-07-29T18:52:24.127Z,25.76
2022-07-29T18:54:30.656Z,25.77
2022-07-29T18:56:34.204Z,25.81
2022-07-29T18:58:38.868Z,25.86
2022-07-29T19:00:43.853Z,25.89
2022-07-29T19:02:47.605Z,25.96
2022-07-29T19:04:51.503Z,25.95
2022-07-29T19:06:55.071Z,25.98
2022-07-29T19:08:58.596Z,25.95
2022-07-29T19:11:02.195Z,25.92
2022-07-29T19:13:06.164Z,25.92
2022-07-29T19:15:11.388Z,25.87
2022-07-29T19:17:16.269Z,25.88
2022-07-29T19:19:19.765Z,25.83
2022-07-29T19:21:24.046Z,25.79
2022-07-29T19:23:27.636Z,25.76
2022-07-29T19:25:31.285Z,25.80
2022-07-29T19:27:39.234Z,25.80
2022-07-29T19:29:42.779Z,25.82
2022-07-29T19:31:46.378Z,25.82
2022-07-29T19:33:51.371Z,25.68
2022-07-29T19:35:55.207Z,25.62
2022-07-29T19:38:01.005Z,25.54
2022-07-29T19:40:05.232Z,25.45
2022-07-29T19:42:10.158Z,25.37
2022-07-29T19:44:13.832Z,25.33
2022-07-29T19:46:17.366Z,25.23
2022-07-29T19:48:20.928Z,25.17
2022-07-29T19:50:26.099Z,25.06
2022-07-29T19:52:29.862Z,25.03
2022-07-29T19:54:33.321Z,24.97
2022-07-29T19:56:39.961Z,24.93
2022-07-29T19:58:45.731Z,24.96
2022-07-29T20:00:49.645Z,24.91
2022-07-29T20:02:53.369Z,24.88
2022-07-29T20:04:56.921Z,24.81
2022-07-29T20:07:02.194Z,24.77
2022-07-29T20:09:06.529Z,24.75
2022-07-29T20:11:10.212Z,24.72
2022-07-29T20:13:13.913Z,24.65
2022-07-29T20:15:17.536Z,24.63
2022-07-29T20:17:22.317Z,24.57
2022-07-29T20:19:25.921Z,24.54
2022-07-29T20:21:29.565Z,24.51
2022-07-29T20:23:34.488Z,24.32
2022-07-29T20:25:38.341Z,24.21
2022-07-29T20:27:42.766Z,24.12
2022-07-29T20:29:46.308Z,24.15
2022-07-29T20:31:53.464Z,24.08
2022-07-29T20:34:00.378Z,24.07
2022-07-29T20:36:03.998Z,24.09
2022-07-29T20:38:07.537Z,24.01
2022-07-29T20:40:13.185Z,24.02
2022-07-29T20:42:16.828Z,24.06
2022-07-29T20:44:20.379Z,24.01
2022-07-29T20:46:23.950Z,24.05
2022-07-29T20:48:27.713Z,24.03
2022-07-29T20:50:31.320Z,24.03
2022-07-29T20:52:34.881Z,24.01
2022-07-29T20:54:38.431Z,24.02
2022-07-29T20:56:43.895Z,24.02
2022-07-29T20:58:47.403Z,23.99
2022-07-29T21:00:51.545Z,24.00
2022-07-29T21:02:55.370Z,23.99
2022-07-29T21:04:58.993Z,23.95
2022-07-29T21:07:02.911Z,23.95
2022-07-29T21:09:06.648Z,23.92
2022-07-29T21:11:10.856Z,23.95
2022-07-29T21:13:16.593Z,23.97
2022-07-29T21:15:21.525Z,23.97
2022-07-29T21:17:25.217Z,23.90
2022-07-29T21:19:28.808Z,23.85
2022-07-29T21:21:32.314Z,23.78
2022-07-29T21:23:36.581Z,23.42
2022-07-29T21:25:40.033Z,23.65
2022-07-29T21:28:01.046Z,23.62
2022-07-29T21:30:07.298Z,23.66
2022-07-29T21:32:11.029Z,23.64
2022-07-29T21:34:15.496Z,23.61
2022-07-29T21:36:47.288Z,23.61
2022-07-29T21:38:42.468Z,23.63
2022-07-29T21:40:47.319Z,23.61
2022-07-29T21:42:50.857Z,23.61
2022-07-29T21:44:54.397Z,23.57
2022-07-29T21:46:59.574Z,23.60
2022-07-29T21:49:03.118Z,23.63
2022-07-29T21:51:06.787Z,23.67
2022-07-29T21:53:11.080Z,23.62
2022-07-29T21:55:18.580Z,23.52
2022-07-29T21:57:22.968Z,23.47
2022-07-29T21:59:26.711Z,23.52
2022-07-29T22:01:39.078Z,23.54
2022-07-29T22:03:44.519Z,23.60
2022-07-29T22:05:48.044Z,23.70
2022-07-29T22:07:56.563Z,23.67
2022-07-29T22:10:00.613Z,23.41
2022-07-29T22:12:04.270Z,22.86
2022-07-29T22:14:08.127Z,23.29
2022-07-29T22:16:14.836Z,23.03
2022-07-29T22:18:20.399Z,22.77
2022-07-29T22:20:26.325Z,22.69
2022-07-29T22:22:30.023Z,22.63
2022-07-29T22:24:33.629Z,22.57
2022-07-29T22:26:37.384Z,22.39
2022-07-29T22:28:40.981Z,22.31
2022-07-29T22:30:44.513Z,22.31
2022-07-29T22:32:49.619Z,22.30
2022-07-29T22:34:53.107Z,22.24
2022-07-29T22:36:58.499Z,22.25
2022-07-29T22:39:02.156Z,22.30
2022-07-29T22:41:05.775Z,22.44
2022-07-29T22:43:09.423Z,22.53
2022-07-29T22:45:13.910Z,22.49
2022-07-29T22:47:17.623Z,22.32
2022-07-29T22:49:41.217Z,22.04
2022-07-29T22:51:44.766Z,22.15
2022-07-29T22:53:49.674Z,22.22
2022-07-29T22:55:53.134Z,22.27
2022-07-29T22:57:56.701Z,22.27
2022-07-29T23:00:01.656Z,22.29
2022-07-29T23:02:05.183Z,22.31
2022-07-29T23:04:08.813Z,22.32
2022-07-29T23:06:12.375Z,22.04
2022-07-29T23:08:16.128Z,22.30
2022-07-29T23:10:22.502Z,22.31
2022-07-29T23:12:25.949Z,22.37
2022-07-29T23:14:29.428Z,22.28
2022-07-29T23:16:33.252Z,22.28
2022-07-29T23:18:38.567Z,22.32
2022-07-29T23:20:43.118Z,22.27
2022-07-29T23:22:46.743Z,21.98
2022-07-29T23:24:50.231Z,21.74
2022-07-29T23:26:55.183Z,21.60
2022-07-29T23:28:58.827Z,21.66
2022-07-29T23:31:02.413Z,21.69
2022-07-29T23:33:06.062Z,21.78
2022-07-29T23:35:10.572Z,21.50
2022-07-29T23:37:14.691Z,21.72
2022-07-29T23:39:18.179Z,21.63
2022-07-29T23:41:21.692Z,21.59
2022-07-29T23:43:26.743Z,21.54
2022-07-29T23:45:40.675Z,21.29
2022-07-29T23:47:48.802Z,21.50
2022-07-29T23:49:52.288Z,21.56
2022-07-29T23:51:55.796Z,21.59
2022-07-29T23:53:59.928Z,21.66
2022-07-29T23:56:03.404Z,21.67
2022-07-29T23:58:06.889Z,21.69
